• Join FlightAware (Why Join?)
  • Login
  • US Flag 
11:48PM EDT


 

Airport Tracker/Info


-or-


 

Live Flight TrackerFlight Track Log ✈ TAM3213 ✈ 21-Oct-2013 ✈ SBCF / CNF - SBSP / CGH

Flight Track Log - Related Links

Times and Time Zones

All times are in EDT time to prevent confusion due to time zone crossing. See the TAM3213 flight status page for this flight to view local times or setup timezone preferences in your user account.

Time Position Orientation Groundspeed Altitude Reporting Facility
EDT Latitude Longitude Course Direction KTS MPH feet Rate Location/Type
07:01AM -19.6320 -43.9650 81° East  Level FlightAware
07:04AM -19.7829 -44.0635 212° Southwest  Level Estimated
07:05AM -19.8509 -44.1080 212° Southwest  Level Estimated
07:06AM -19.9189 -44.1525 212° Southwest  Level Estimated
07:07AM -19.9869 -44.1971 212° Southwest  Level Estimated
07:08AM -20.0550 -44.2417 212° Southwest  Level Estimated
07:09AM -20.1229 -44.2864 212° Southwest  Level Estimated
07:10AM -20.1909 -44.3311 212° Southwest  Level Estimated
07:11AM -20.2589 -44.3758 212° Southwest  Level Estimated
07:12AM -20.3269 -44.4206 212° Southwest  Level Estimated
07:12AM -19.6320 -43.9640 212° Southwest  Level FlightAware
07:15AM -19.7658 -44.0524 212° Southwest  Level Estimated
07:16AM -19.6320 -43.9650 270° West  Level FlightAware
07:19AM -19.7942 -44.0709 212° Southwest  Level Estimated
07:20AM -19.8622 -44.1154 212° Southwest  Level Estimated
07:21AM -19.9303 -44.1600 212° Southwest  Level Estimated
07:22AM -19.9983 -44.2045 212° Southwest  Level Estimated
07:23AM -20.0663 -44.2492 212° Southwest  Level Estimated
07:24AM -20.1343 -44.2938 212° Southwest  Level Estimated
07:25AM -20.2022 -44.3385 212° Southwest  Level Estimated
07:29AM -19.6260 -43.9760 148° Southeast 76 87  Level FlightAware
07:29AM -19.6340 -43.9680 137° Southeast 150 173 4,320 Level FlightAware
07:30AM -19.6460 -43.9570 139° Southeast 172 198 2,900 5,820 Climbing FlightAware
07:30AM -19.6550 -43.9500 144° Southeast 177 204 3,400 1,680 Climbing FlightAware
07:30AM -19.6640 -43.9460 157° South 189 217 3,600 960 Climbing FlightAware
07:30AM -19.6820 -43.9410 165° South 214 246 3,900 1,020 Climbing FlightAware
07:31AM -19.7030 -43.9360 167° South 240 276 4,300 1,680 Climbing FlightAware
07:31AM -19.7290 -43.9250 158° South 249 287 5,200 2,400 Climbing FlightAware
07:31AM -19.7350 -43.9150 123° Southeast 246 283 5,700 2,700 Climbing FlightAware
07:31AM -19.7370 -43.9040 101° East 242 278 6,100 2,280 Climbing FlightAware
07:32AM -19.7370 -43.9020 90° East 238 274 6,900 2,520 Climbing FlightAware
07:32AM -19.7120 -43.8690 51° Northeast 239 275 7,800 2,460 Climbing FlightAware
07:32AM -19.7060 -43.8680 North 246 283 7,900 1,200 Climbing FlightAware
07:33AM -19.6830 -43.8740 346° North 273 314 8,300 1,440 Climbing FlightAware
07:33AM -19.6530 -43.8890 335° Northwest 291 335 9,000 2,040 Climbing FlightAware
07:33AM -19.6290 -43.9010 335° Northwest 291 335 9,900 2,220 Climbing FlightAware
07:34AM -19.6080 -43.9140 330° Northwest 305 351 10,500 1,380 Climbing FlightAware
07:34AM -19.5930 -43.9350 307° West 324 373 10,700 1,320 Climbing FlightAware
07:34AM -19.5760 -43.9920 288° West 354 407 11,600 1,680 Climbing FlightAware
07:35AM -19.5700 -44.0170 284° West 360 414 12,100 1,200 Climbing FlightAware
07:35AM -19.5790 -44.0690 260° West 388 447 12,500 720 Climbing FlightAware
07:35AM -19.5890 -44.0840 235° Southwest 396 456 12,600 1,560 Climbing FlightAware
07:36AM -19.6280 -44.1400 234° Southwest 405 466 13,700 2,520 Climbing FlightAware
07:37AM -19.6760 -44.2200 237° Southwest 383 441 16,300 2,460 Climbing FlightAware
07:37AM -19.7110 -44.2770 237° Southwest 392 451 17,300 1,200 Climbing FlightAware
07:38AM -19.7510 -44.3290 231° Southwest 415 478 17,700 600 Climbing FlightAware
07:39AM -19.7970 -44.3890 231° Southwest 437 503 18,000 900 Climbing FlightAware
07:39AM -19.8420 -44.4480 231° Southwest 443 510 18,800 1,440 Climbing FlightAware
07:40AM -19.8870 -44.5070 231° Southwest 445 512 19,700 1,320 Climbing FlightAware
07:40AM -19.9390 -44.5750 231° Southwest 451 519 20,500 1,200 Climbing FlightAware
07:41AM -19.9860 -44.6380 232° Southwest 454 522 21,200 1,200 Climbing FlightAware
07:42AM -20.0300 -44.6960 231° Southwest 458 527 21,900 1,020 Climbing FlightAware
07:42AM -20.0790 -44.7600 231° Southwest 464 534 22,400 900 Climbing FlightAware
07:43AM -20.1260 -44.8240 232° Southwest 470 541 23,000 1,020 Climbing FlightAware
07:43AM -20.1780 -44.8930 231° Southwest 473 544 23,700 1,080 Climbing FlightAware
07:44AM -20.2220 -44.9500 231° Southwest 472 543 24,300 1,080 Climbing FlightAware
07:44AM -20.2690 -45.0140 232° Southwest 472 543 24,900 900 Climbing FlightAware
07:45AM -20.3180 -45.0780 231° Southwest 476 548 25,400 900 Climbing FlightAware
07:46AM -20.3650 -45.1410 231° Southwest 475 547 26,000 1,200 Climbing FlightAware
07:46AM -20.4100 -45.2010 231° Southwest 470 541 26,800 1,860 Climbing FlightAware
07:47AM -20.4580 -45.2650 231° Southwest 451 519 28,200 1,260 Climbing FlightAware
07:47AM -20.5110 -45.3370 232° Southwest 467 537 28,400 240 Climbing FlightAware
07:48AM -20.5530 -45.3920 231° Southwest 477 549 28,500 600 Climbing FlightAware
07:49AM -20.6020 -45.4580 232° Southwest 478 550 29,100 1,200 Climbing FlightAware
07:49AM -20.6490 -45.5220 232° Southwest 472 543 29,900 1,320 Climbing FlightAware
07:50AM -20.6970 -45.5850 231° Southwest 467 537 30,700 1,200 Climbing FlightAware
07:50AM -20.7440 -45.6490 232° Southwest 467 537 31,300 1,080 Climbing FlightAware
07:51AM -20.7900 -45.7110 232° Southwest 463 533 32,000 1,200 Climbing FlightAware
07:52AM -20.8430 -45.7820 231° Southwest 459 528 32,800 1,020 Climbing FlightAware
07:52AM -20.8830 -45.8360 232° Southwest 462 532 33,200 780 Climbing FlightAware
07:53AM -20.9300 -45.9000 232° Southwest 461 531 33,700 1,080 Climbing FlightAware
07:53AM -20.9750 -45.9610 232° Southwest 454 522 34,500 1,200 Climbing FlightAware
07:54AM -21.0190 -46.0200 231° Southwest 450 518 35,100 1,080 Climbing FlightAware
07:54AM -21.0650 -46.0830 232° Southwest 444 511 35,800 720 Climbing FlightAware
07:55AM -21.1110 -46.1450 231° Southwest 448 516 36,000 120 Climbing FlightAware
07:56AM -21.1520 -46.2010 232° Southwest 445 512 36,000  Level FlightAware
07:56AM -21.2060 -46.2740 232° Southwest 443 510 36,000  Level FlightAware
07:57AM -21.2420 -46.3230 232° Southwest 443 510 36,000  Level FlightAware
07:57AM -21.2950 -46.3950 232° Southwest 443 510 36,000  Level FlightAware
07:58AM -21.3310 -46.4450 232° Southwest 444 511 36,000  Level FlightAware
07:58AM -21.3780 -46.5080 231° Southwest 443 510 36,000  Level FlightAware
07:59AM -21.4280 -46.5770 232° Southwest 443 510 36,000  Level FlightAware
08:00AM -21.4630 -46.6250 232° Southwest 443 510 36,000  Level FlightAware
08:00AM -21.5110 -46.6870 230° Southwest 446 513 36,000  Level FlightAware
08:00AM -21.5330 -46.7070 220° Southwest 450 518 36,000  Level FlightAware
08:01AM -21.5990 -46.7500 211° Southwest 450 518 36,000  Level FlightAware
08:02AM -21.6600 -46.7910 212° Southwest 448 516 36,000  Level FlightAware
08:02AM -21.7220 -46.8330 212° Southwest 449 517 36,000  Level FlightAware
08:03AM -21.7820 -46.8730 212° Southwest 448 516 36,000  Level FlightAware
08:03AM -21.8450 -46.9150 212° Southwest 447 514 36,000  Level FlightAware
08:04AM -21.8980 -46.9510 212° Southwest 447 514 36,000  Level FlightAware
08:04AM -21.9590 -46.9910 211° Southwest 447 514 36,000  Level FlightAware
08:05AM -22.0250 -47.0360 212° Southwest 446 513 36,000  Level FlightAware
08:06AM -22.0790 -47.0720 212° Southwest 448 516 36,000 -300 Level FlightAware
08:06AM -22.1460 -47.1180 212° Southwest 446 513 35,700 -780 Descending FlightAware
08:07AM -22.2070 -47.1590 212° Southwest 450 518 35,100 -1,620 Descending FlightAware
08:07AM -22.2700 -47.2020 212° Southwest 454 522 33,800 -2,700 Descending FlightAware
08:08AM -22.3190 -47.2350 212° Southwest 458 527 32,200 -3,420 Descending FlightAware
08:09AM -22.3940 -47.2850 212° Southwest 464 534 29,900 -3,540 Descending FlightAware
08:09AM -22.4550 -47.3260 212° Southwest 467 537 27,900 -3,240 Descending FlightAware
08:10AM -22.5180 -47.3690 212° Southwest 456 525 26,400 -2,940 Descending FlightAware
08:10AM -22.5840 -47.4120 211° Southwest 446 513 24,500 -3,600 Descending FlightAware
08:11AM -22.6130 -47.4230 199° South 455 524 23,300 -4,080 Descending FlightAware
08:11AM -22.6750 -47.4260 183° South 470 541 21,000 -4,200 Descending FlightAware
08:11AM -22.7170 -47.4150 166° South 466 536 19,900 -3,900 Descending FlightAware
08:12AM -22.7910 -47.3850 160° South 456 525 17,900 -3,120 Descending FlightAware
08:13AM -22.8570 -47.3590 160° South 443 510 16,200 -3,180 Descending FlightAware
08:13AM -22.9250 -47.3320 160° South 440 506 14,300 -3,240 Descending FlightAware
08:14AM -22.9900 -47.3050 159° South 433 498 12,500 -2,280 Descending FlightAware
08:14AM -23.0460 -47.2830 160° South 410 472 11,800 -1,140 Descending FlightAware
08:15AM -23.1100 -47.2570 160° South 385 443 11,200 -1,020 Descending FlightAware
08:15AM -23.1430 -47.2430 159° South 379 436 10,800 -1,080 Descending FlightAware
08:16AM -23.1730 -47.2170 141° Southeast 365 420 10,500 -900 Descending FlightAware
08:16AM -23.2150 -47.1780 140° Southeast 347 399 10,000 -660 Descending FlightAware
08:16AM -23.2400 -47.1540 139° Southeast 334 384 9,900 -480 Descending FlightAware
08:17AM -23.2630 -47.1330 140° Southeast 326 375 9,700 -480 Descending FlightAware
08:17AM -23.2960 -47.1020 139° Southeast 324 373 9,500 -360 Descending FlightAware
08:18AM -23.3150 -47.0850 141° Southeast 322 371 9,400 -540 Descending FlightAware
08:18AM -23.3480 -47.0540 139° Southeast 324 373 9,100 -540 Descending FlightAware
08:18AM -23.3690 -47.0340 139° Southeast 321 369 9,000 -480 Descending FlightAware
08:19AM -23.3920 -47.0130 140° Southeast 316 364 8,800 -480 Descending FlightAware
08:19AM -23.4140 -46.9920 139° Southeast 316 364 8,700 -480 Descending FlightAware
08:19AM -23.4350 -46.9720 139° Southeast 316 364 8,500 -300 Descending FlightAware
08:20AM -23.4590 -46.9490 139° Southeast 314 361 8,500 -180 Level FlightAware
08:20AM -23.4880 -46.9220 140° Southeast 315 362 8,400 -300 Descending FlightAware
08:20AM -23.5100 -46.9010 139° Southeast 315 362 8,300 -300 Descending FlightAware
08:21AM -23.5350 -46.8770 139° Southeast 314 361 8,200 -180 Descending FlightAware
08:21AM -23.5540 -46.8590 139° Southeast 313 360 8,200  Level FlightAware
08:21AM -23.5690 -46.8440 137° Southeast 314 361 8,200 -180 Level FlightAware
08:22AM -23.5950 -46.8190 139° Southeast 314 361 8,100 -300 Descending FlightAware
08:22AM -23.6150 -46.7990 138° Southeast 300 345 8,000 -180 Descending FlightAware
08:22AM -23.6360 -46.7790 139° Southeast 287 330 8,000  Level FlightAware
08:23AM -23.6570 -46.7570 136° Southeast 280 322 8,000  Level FlightAware
08:23AM -23.6760 -46.7390 139° Southeast 280 322 8,000 -420 Level FlightAware
08:24AM -23.6990 -46.7160 138° Southeast 277 319 7,700 -1,200 Descending FlightAware
08:24AM -23.7150 -46.7000 138° Southeast 282 325 7,200 -1,440 Descending FlightAware
08:24AM -23.7410 -46.6750 139° Southeast 284 327 6,700 -960 Descending FlightAware
08:25AM -23.7600 -46.6570 139° Southeast 273 314 6,500 -1,200 Descending FlightAware
08:25AM -23.7750 -46.6350 127° Southeast 275 316 5,900 -1,500 Descending FlightAware
08:25AM -23.7770 -46.6210 99° East 273 314 5,700 -1,200 Descending FlightAware
08:25AM -23.7660 -46.5940 66° East 210 242 5,200 -1,380 Descending FlightAware
08:26AM -23.7560 -46.5910 15° North 189 217 4,900 -1,260 Descending FlightAware
08:26AM -23.7350 -46.5950 350° North 163 188 4,400 -900 Descending FlightAware
08:26AM -23.7210 -46.5990 345° North 147 169 4,200 -420 Descending FlightAware
08:27AM -23.7150 -46.6000 351° North 143 165 4,200 -240 Level FlightAware
08:27AM -23.7060 -46.6030 343° North 143 165 4,100 -540 Descending FlightAware
08:27AM -23.6940 -46.6100 332° Northwest 141 162 3,900 -780 Descending FlightAware
08:28AM -23.6830 -46.6180 326° Northwest 139 160 3,600 -780 Descending FlightAware
08:28AM -23.6720 -46.6250 330° Northwest 139 160 3,400 -720 Descending FlightAware
08:28AM -23.6580 -46.6350 327° Northwest 144 166 3,100 -720 Descending FlightAware
08:29AM -23.6480 -46.6420 327° Northwest 143 165 2,900 -780 Descending FlightAware
08:29AM -23.6370 -46.6490 330° Northwest 139 160 2,600 -420 Descending FlightAware
08:29AM -23.6250 -46.6570 329° Northwest 139 160 2,600  Level FlightAware
08:31AM -23.6230 -46.6600 180° South 138 159 -2,160 Descending FlightAware
08:31AM -23.6240 -46.6590 138° Southeast 138 159  Level FlightAware
08:32AM -23.6270 -46.6580 180° South 138 159  Level FlightAware
08:32AM -23.6270 -46.6570 90° East 138 159  Level FlightAware
08:33AM -23.6180 -46.6440 53° Northeast 138 159  Level FlightAware